sensor_id;sensor_type;location;lat;lon;timestamp;P1;durP1;ratioP1;P2;durP2;ratioP2
18338;SDS011;9295;44.484;11.240;2023-05-07T00:01:48;9.73;;;3.80;;
18338;SDS011;9295;44.484;11.240;2023-05-07T00:04:17;5.20;;;3.83;;
18338;SDS011;9295;44.484;11.240;2023-05-07T00:06:46;4.90;;;3.40;;
18338;SDS011;9295;44.484;11.240;2023-05-07T00:09:14;6.30;;;3.83;;
18338;SDS011;9295;44.484;11.240;2023-05-07T00:11:43;4.80;;;3.53;;
18338;SDS011;9295;44.484;11.240;2023-05-07T00:14:11;6.60;;;3.73;;
18338;SDS011;9295;44.484;11.240;2023-05-07T00:16:39;5.70;;;3.40;;
18338;SDS011;9295;44.484;11.240;2023-05-07T00:19:08;4.90;;;3.07;;
18338;SDS011;9295;44.484;11.240;2023-05-07T00:21:38;8.20;;;3.77;;
18338;SDS011;9295;44.484;11.240;2023-05-07T00:24:06;5.43;;;3.03;;
18338;SDS011;9295;44.484;11.240;2023-05-07T00:26:34;6.23;;;3.23;;
18338;SDS011;9295;44.484;11.240;2023-05-07T00:29:03;4.60;;;3.13;;
18338;SDS011;9295;44.484;11.240;2023-05-07T00:31:31;5.60;;;3.30;;
18338;SDS011;9295;44.484;11.240;2023-05-07T00:34:01;6.97;;;3.70;;
18338;SDS011;9295;44.484;11.240;2023-05-07T00:36:29;8.03;;;3.43;;
18338;SDS011;9295;44.484;11.240;2023-05-07T00:39:00;8.57;;;3.90;;
18338;SDS011;9295;44.484;11.240;2023-05-07T00:41:30;6.90;;;3.50;;
18338;SDS011;9295;44.484;11.240;2023-05-07T00:43:58;6.63;;;3.47;;
18338;SDS011;9295;44.484;11.240;2023-05-07T00:46:27;5.93;;;3.20;;
18338;SDS011;9295;44.484;11.240;2023-05-07T00:48:56;6.00;;;3.57;;
18338;SDS011;9295;44.484;11.240;2023-05-07T00:51:25;6.33;;;3.53;;
18338;SDS011;9295;44.484;11.240;2023-05-07T00:53:55;4.80;;;3.37;;
18338;SDS011;9295;44.484;11.240;2023-05-07T00:56:25;4.90;;;3.20;;
18338;SDS011;9295;44.484;11.240;2023-05-07T00:58:54;5.40;;;3.00;;
18338;SDS011;9295;44.484;11.240;2023-05-07T01:01:23;9.83;;;3.20;;
18338;SDS011;9295;44.484;11.240;2023-05-07T01:03:52;6.13;;;3.10;;
18338;SDS011;9295;44.484;11.240;2023-05-07T01:06:21;6.77;;;3.03;;
18338;SDS011;9295;44.484;11.240;2023-05-07T01:08:52;4.37;;;3.50;;
18338;SDS011;9295;44.484;11.240;2023-05-07T01:11:24;13.33;;;3.67;;
18338;SDS011;9295;44.484;11.240;2023-05-07T01:13:53;5.30;;;3.37;;
18338;SDS011;9295;44.484;11.240;2023-05-07T01:16:21;4.30;;;3.00;;
18338;SDS011;9295;44.484;11.240;2023-05-07T01:18:50;9.87;;;3.37;;
18338;SDS011;9295;44.484;11.240;2023-05-07T01:21:18;5.97;;;3.13;;
18338;SDS011;9295;44.484;11.240;2023-05-07T01:23:58;9.53;;;4.10;;
18338;SDS011;9295;44.484;11.240;2023-05-07T01:26:27;5.00;;;3.60;;
18338;SDS011;9295;44.484;11.240;2023-05-07T01:28:56;7.70;;;3.10;;
18338;SDS011;9295;44.484;11.240;2023-05-07T01:31:24;5.77;;;3.77;;
18338;SDS011;9295;44.484;11.240;2023-05-07T01:33:53;4.70;;;3.27;;
18338;SDS011;9295;44.484;11.240;2023-05-07T01:36:23;5.17;;;3.50;;
18338;SDS011;9295;44.484;11.240;2023-05-07T01:38:54;9.80;;;3.47;;
18338;SDS011;9295;44.484;11.240;2023-05-07T01:41:26;7.80;;;3.97;;
18338;SDS011;9295;44.484;11.240;2023-05-07T01:43:55;9.17;;;3.53;;
18338;SDS011;9295;44.484;11.240;2023-05-07T01:46:26;9.03;;;3.77;;
18338;SDS011;9295;44.484;11.240;2023-05-07T01:48:55;8.27;;;3.73;;
18338;SDS011;9295;44.484;11.240;2023-05-07T01:51:23;15.90;;;3.80;;
18338;SDS011;9295;44.484;11.240;2023-05-07T01:53:52;5.40;;;4.00;;
18338;SDS011;9295;44.484;11.240;2023-05-07T01:56:21;7.17;;;3.40;;
18338;SDS011;9295;44.484;11.240;2023-05-07T01:58:52;10.53;;;3.60;;
18338;SDS011;9295;44.484;11.240;2023-05-07T02:01:20;6.50;;;3.80;;
18338;SDS011;9295;44.484;11.240;2023-05-07T02:03:49;6.30;;;3.70;;
18338;SDS011;9295;44.484;11.240;2023-05-07T02:06:22;5.17;;;3.90;;
18338;SDS011;9295;44.484;11.240;2023-05-07T02:08:55;5.23;;;3.90;;
18338;SDS011;9295;44.484;11.240;2023-05-07T02:11:23;5.90;;;3.43;;
18338;SDS011;9295;44.484;11.240;2023-05-07T02:13:53;3.80;;;3.10;;
18338;SDS011;9295;44.484;11.240;2023-05-07T02:16:22;6.43;;;3.47;;
18338;SDS011;9295;44.484;11.240;2023-05-07T02:18:51;4.23;;;3.10;;
18338;SDS011;9295;44.484;11.240;2023-05-07T02:21:19;10.43;;;3.90;;
18338;SDS011;9295;44.484;11.240;2023-05-07T02:23:48;4.53;;;3.20;;
18338;SDS011;9295;44.484;11.240;2023-05-07T02:26:17;7.40;;;4.00;;
18338;SDS011;9295;44.484;11.240;2023-05-07T02:28:45;10.67;;;3.57;;
18338;SDS011;9295;44.484;11.240;2023-05-07T02:31:15;5.97;;;3.73;;
18338;SDS011;9295;44.484;11.240;2023-05-07T02:33:44;4.37;;;3.27;;
18338;SDS011;9295;44.484;11.240;2023-05-07T02:36:13;7.30;;;4.17;;
18338;SDS011;9295;44.484;11.240;2023-05-07T02:38:50;8.70;;;3.80;;
18338;SDS011;9295;44.484;11.240;2023-05-07T02:41:19;5.63;;;3.77;;
18338;SDS011;9295;44.484;11.240;2023-05-07T02:43:48;4.17;;;3.10;;
18338;SDS011;9295;44.484;11.240;2023-05-07T02:46:18;7.23;;;3.33;;
18338;SDS011;9295;44.484;11.240;2023-05-07T02:48:52;13.23;;;3.57;;
18338;SDS011;9295;44.484;11.240;2023-05-07T02:51:21;4.63;;;3.63;;
18338;SDS011;9295;44.484;11.240;2023-05-07T02:53:54;5.97;;;3.13;;
18338;SDS011;9295;44.484;11.240;2023-05-07T02:56:22;14.63;;;3.77;;
18338;SDS011;9295;44.484;11.240;2023-05-07T02:58:50;5.30;;;2.93;;
18338;SDS011;9295;44.484;11.240;2023-05-07T03:01:22;6.53;;;3.23;;
18338;SDS011;9295;44.484;11.240;2023-05-07T03:04:03;5.70;;;3.07;;
18338;SDS011;9295;44.484;11.240;2023-05-07T03:06:32;5.13;;;3.23;;
18338;SDS011;9295;44.484;11.240;2023-05-07T03:09:00;5.77;;;3.20;;
18338;SDS011;9295;44.484;11.240;2023-05-07T03:11:29;6.20;;;3.20;;
18338;SDS011;9295;44.484;11.240;2023-05-07T03:13:57;6.33;;;3.53;;
18338;SDS011;9295;44.484;11.240;2023-05-07T03:16:27;6.03;;;3.53;;
18338;SDS011;9295;44.484;11.240;2023-05-07T03:18:56;9.77;;;3.80;;
18338;SDS011;9295;44.484;11.240;2023-05-07T03:21:25;4.70;;;3.33;;
18338;SDS011;9295;44.484;11.240;2023-05-07T03:23:54;5.50;;;3.20;;
18338;SDS011;9295;44.484;11.240;2023-05-07T03:26:23;4.90;;;3.90;;
18338;SDS011;9295;44.484;11.240;2023-05-07T03:28:52;4.03;;;3.17;;
18338;SDS011;9295;44.484;11.240;2023-05-07T03:31:20;10.77;;;3.50;;
18338;SDS011;9295;44.484;11.240;2023-05-07T03:33:51;7.90;;;3.60;;
18338;SDS011;9295;44.484;11.240;2023-05-07T03:36:20;9.67;;;4.20;;
18338;SDS011;9295;44.484;11.240;2023-05-07T03:38:49;8.43;;;3.87;;
18338;SDS011;9295;44.484;11.240;2023-05-07T03:41:21;5.50;;;4.00;;
18338;SDS011;9295;44.484;11.240;2023-05-07T03:43:50;5.60;;;3.93;;
18338;SDS011;9295;44.484;11.240;2023-05-07T03:46:18;7.20;;;3.87;;
18338;SDS011;9295;44.484;11.240;2023-05-07T03:48:47;6.83;;;4.20;;
18338;SDS011;9295;44.484;11.240;2023-05-07T03:51:17;6.90;;;4.20;;
18338;SDS011;9295;44.484;11.240;2023-05-07T03:53:46;9.90;;;4.03;;
18338;SDS011;9295;44.484;11.240;2023-05-07T03:56:14;11.73;;;4.03;;
18338;SDS011;9295;44.484;11.240;2023-05-07T03:58:45;6.57;;;4.37;;
18338;SDS011;9295;44.484;11.240;2023-05-07T04:01:15;5.97;;;3.60;;
18338;SDS011;9295;44.484;11.240;2023-05-07T04:03:43;9.20;;;4.43;;
18338;SDS011;9295;44.484;11.240;2023-05-07T04:06:12;6.80;;;4.57;;
18338;SDS011;9295;44.484;11.240;2023-05-07T04:08:44;6.53;;;4.50;;
18338;SDS011;9295;44.484;11.240;2023-05-07T04:11:13;5.90;;;3.93;;
18338;SDS011;9295;44.484;11.240;2023-05-07T04:13:42;6.80;;;4.17;;
18338;SDS011;9295;44.484;11.240;2023-05-07T04:16:10;9.43;;;4.40;;
18338;SDS011;9295;44.484;11.240;2023-05-07T04:18:38;5.83;;;4.40;;
18338;SDS011;9295;44.484;11.240;2023-05-07T04:21:13;10.07;;;4.30;;
18338;SDS011;9295;44.484;11.240;2023-05-07T04:23:42;5.63;;;4.00;;
18338;SDS011;9295;44.484;11.240;2023-05-07T04:26:13;5.13;;;3.53;;
18338;SDS011;9295;44.484;11.240;2023-05-07T04:28:43;8.00;;;4.60;;
18338;SDS011;9295;44.484;11.240;2023-05-07T04:31:13;5.23;;;4.03;;
18338;SDS011;9295;44.484;11.240;2023-05-07T04:33:43;7.10;;;4.00;;
18338;SDS011;9295;44.484;11.240;2023-05-07T04:36:13;4.83;;;3.83;;
18338;SDS011;9295;44.484;11.240;2023-05-07T04:38:59;5.50;;;4.23;;
18338;SDS011;9295;44.484;11.240;2023-05-07T04:41:27;7.87;;;4.43;;
18338;SDS011;9295;44.484;11.240;2023-05-07T04:43:55;6.60;;;4.00;;
18338;SDS011;9295;44.484;11.240;2023-05-07T04:46:28;6.90;;;4.20;;
18338;SDS011;9295;44.484;11.240;2023-05-07T04:48:57;10.50;;;4.17;;
18338;SDS011;9295;44.484;11.240;2023-05-07T04:51:25;11.70;;;4.13;;
18338;SDS011;9295;44.484;11.240;2023-05-07T04:53:54;4.80;;;3.90;;
18338;SDS011;9295;44.484;11.240;2023-05-07T04:56:25;5.03;;;3.93;;
18338;SDS011;9295;44.484;11.240;2023-05-07T04:58:56;8.33;;;4.80;;
18338;SDS011;9295;44.484;11.240;2023-05-07T05:01:24;7.73;;;5.10;;
18338;SDS011;9295;44.484;11.240;2023-05-07T05:03:53;10.27;;;4.63;;
18338;SDS011;9295;44.484;11.240;2023-05-07T05:06:21;12.50;;;4.60;;
18338;SDS011;9295;44.484;11.240;2023-05-07T05:08:51;7.37;;;4.27;;
18338;SDS011;9295;44.484;11.240;2023-05-07T05:11:20;7.20;;;4.10;;
18338;SDS011;9295;44.484;11.240;2023-05-07T05:13:50;6.43;;;3.93;;
18338;SDS011;9295;44.484;11.240;2023-05-07T05:16:20;7.97;;;4.00;;
18338;SDS011;9295;44.484;11.240;2023-05-07T05:18:48;4.80;;;3.20;;
18338;SDS011;9295;44.484;11.240;2023-05-07T05:21:18;4.80;;;3.43;;
18338;SDS011;9295;44.484;11.240;2023-05-07T05:23:50;6.03;;;3.20;;
18338;SDS011;9295;44.484;11.240;2023-05-07T05:26:22;3.90;;;2.97;;
18338;SDS011;9295;44.484;11.240;2023-05-07T05:28:52;7.10;;;2.97;;
18338;SDS011;9295;44.484;11.240;2023-05-07T05:31:22;6.53;;;2.83;;
18338;SDS011;9295;44.484;11.240;2023-05-07T05:33:51;6.63;;;3.27;;
18338;SDS011;9295;44.484;11.240;2023-05-07T05:36:19;5.20;;;2.73;;
18338;SDS011;9295;44.484;11.240;2023-05-07T05:38:50;5.23;;;2.97;;
18338;SDS011;9295;44.484;11.240;2023-05-07T05:41:19;6.67;;;2.83;;
18338;SDS011;9295;44.484;11.240;2023-05-07T05:43:48;6.40;;;3.00;;
18338;SDS011;9295;44.484;11.240;2023-05-07T05:46:20;4.80;;;3.00;;
18338;SDS011;9295;44.484;11.240;2023-05-07T05:48:50;7.00;;;3.80;;
18338;SDS011;9295;44.484;11.240;2023-05-07T05:51:20;6.10;;;3.50;;
18338;SDS011;9295;44.484;11.240;2023-05-07T05:53:49;5.90;;;4.33;;
18338;SDS011;9295;44.484;11.240;2023-05-07T05:56:19;7.70;;;4.30;;
18338;SDS011;9295;44.484;11.240;2023-05-07T05:58:47;8.43;;;4.20;;
18338;SDS011;9295;44.484;11.240;2023-05-07T06:01:16;8.37;;;4.30;;
18338;SDS011;9295;44.484;11.240;2023-05-07T06:03:48;5.80;;;4.37;;
18338;SDS011;9295;44.484;11.240;2023-05-07T06:06:16;6.40;;;4.22;;
18338;SDS011;9295;44.484;11.240;2023-05-07T06:08:45;6.28;;;3.88;;
18338;SDS011;9295;44.484;11.240;2023-05-07T06:11:19;8.27;;;4.30;;
18338;SDS011;9295;44.484;11.240;2023-05-07T06:13:48;5.63;;;4.05;;
18338;SDS011;9295;44.484;11.240;2023-05-07T06:16:16;11.57;;;4.93;;
18338;SDS011;9295;44.484;11.240;2023-05-07T06:18:45;8.05;;;4.95;;
18338;SDS011;9295;44.484;11.240;2023-05-07T06:21:16;6.87;;;5.50;;
18338;SDS011;9295;44.484;11.240;2023-05-07T06:23:44;9.03;;;6.33;;
18338;SDS011;9295;44.484;11.240;2023-05-07T06:26:13;7.28;;;5.88;;
18338;SDS011;9295;44.484;11.240;2023-05-07T06:28:45;8.85;;;6.45;;
18338;SDS011;9295;44.484;11.240;2023-05-07T06:31:16;8.05;;;6.07;;
18338;SDS011;9295;44.484;11.240;2023-05-07T06:34:01;9.25;;;5.90;;
18338;SDS011;9295;44.484;11.240;2023-05-07T06:36:35;9.27;;;6.63;;
18338;SDS011;9295;44.484;11.240;2023-05-07T06:39:15;8.43;;;6.15;;
18338;SDS011;9295;44.484;11.240;2023-05-07T06:41:43;11.10;;;6.25;;
18338;SDS011;9295;44.484;11.240;2023-05-07T06:44:22;10.63;;;5.75;;
18338;SDS011;9295;44.484;11.240;2023-05-07T06:46:59;9.50;;;5.10;;
18338;SDS011;9295;44.484;11.240;2023-05-07T06:49:28;7.05;;;5.05;;
18338;SDS011;9295;44.484;11.240;2023-05-07T06:51:59;7.33;;;5.40;;
18338;SDS011;9295;44.484;11.240;2023-05-07T06:54:28;7.17;;;5.27;;
18338;SDS011;9295;44.484;11.240;2023-05-07T06:56:57;65.70;;;13.60;;
18338;SDS011;9295;44.484;11.240;2023-05-07T06:59:27;18.10;;;7.00;;
18338;SDS011;9295;44.484;11.240;2023-05-07T07:01:55;41.97;;;11.55;;
18338;SDS011;9295;44.484;11.240;2023-05-07T07:04:24;19.10;;;7.83;;
18338;SDS011;9295;44.484;11.240;2023-05-07T07:07:01;13.40;;;6.60;;
18338;SDS011;9295;44.484;11.240;2023-05-07T07:09:30;7.93;;;5.27;;
18338;SDS011;9295;44.484;11.240;2023-05-07T07:12:00;7.73;;;5.23;;
18338;SDS011;9295;44.484;11.240;2023-05-07T07:14:29;12.40;;;6.40;;
18338;SDS011;9295;44.484;11.240;2023-05-07T07:16:58;8.50;;;5.60;;
18338;SDS011;9295;44.484;11.240;2023-05-07T07:19:27;10.83;;;5.63;;
18338;SDS011;9295;44.484;11.240;2023-05-07T07:21:56;9.13;;;6.17;;
18338;SDS011;9295;44.484;11.240;2023-05-07T07:24:26;11.13;;;5.77;;
18338;SDS011;9295;44.484;11.240;2023-05-07T07:26:58;8.40;;;6.47;;
18338;SDS011;9295;44.484;11.240;2023-05-07T07:29:27;8.90;;;6.37;;
18338;SDS011;9295;44.484;11.240;2023-05-07T07:31:56;13.60;;;6.97;;
18338;SDS011;9295;44.484;11.240;2023-05-07T07:34:25;7.50;;;5.38;;
18338;SDS011;9295;44.484;11.240;2023-05-07T07:36:54;10.40;;;6.60;;
18338;SDS011;9295;44.484;11.240;2023-05-07T07:39:23;8.65;;;6.35;;
18338;SDS011;9295;44.484;11.240;2023-05-07T07:41:56;11.35;;;6.00;;
18338;SDS011;9295;44.484;11.240;2023-05-07T07:44:27;8.15;;;5.63;;
18338;SDS011;9295;44.484;11.240;2023-05-07T07:47:00;9.65;;;5.75;;
18338;SDS011;9295;44.484;11.240;2023-05-07T07:49:29;9.90;;;6.53;;
18338;SDS011;9295;44.484;11.240;2023-05-07T07:52:01;9.50;;;6.20;;
18338;SDS011;9295;44.484;11.240;2023-05-07T07:54:32;6.68;;;5.55;;
18338;SDS011;9295;44.484;11.240;2023-05-07T07:57:02;9.70;;;6.10;;
18338;SDS011;9295;44.484;11.240;2023-05-07T07:59:33;8.63;;;5.80;;
18338;SDS011;9295;44.484;11.240;2023-05-07T08:02:01;10.57;;;6.23;;
18338;SDS011;9295;44.484;11.240;2023-05-07T08:04:30;8.47;;;5.93;;
18338;SDS011;9295;44.484;11.240;2023-05-07T08:07:03;9.10;;;7.30;;
18338;SDS011;9295;44.484;11.240;2023-05-07T08:09:35;12.93;;;6.30;;
18338;SDS011;9295;44.484;11.240;2023-05-07T08:12:06;9.27;;;7.30;;
18338;SDS011;9295;44.484;11.240;2023-05-07T08:14:35;12.50;;;5.57;;
18338;SDS011;9295;44.484;11.240;2023-05-07T08:17:05;7.80;;;6.73;;
18338;SDS011;9295;44.484;11.240;2023-05-07T08:19:34;8.60;;;6.70;;
18338;SDS011;9295;44.484;11.240;2023-05-07T08:22:05;11.23;;;6.97;;
18338;SDS011;9295;44.484;11.240;2023-05-07T08:24:34;11.63;;;7.50;;
18338;SDS011;9295;44.484;11.240;2023-05-07T08:27:03;8.27;;;6.57;;
18338;SDS011;9295;44.484;11.240;2023-05-07T08:29:33;10.53;;;6.70;;
18338;SDS011;9295;44.484;11.240;2023-05-07T08:32:02;8.80;;;7.70;;
18338;SDS011;9295;44.484;11.240;2023-05-07T08:34:31;11.40;;;7.30;;
18338;SDS011;9295;44.484;11.240;2023-05-07T08:37:05;8.80;;;5.40;;
18338;SDS011;9295;44.484;11.240;2023-05-07T08:39:34;9.47;;;6.77;;
18338;SDS011;9295;44.484;11.240;2023-05-07T08:42:07;9.97;;;6.33;;
18338;SDS011;9295;44.484;11.240;2023-05-07T08:44:40;8.40;;;5.97;;
18338;SDS011;9295;44.484;11.240;2023-05-07T08:47:14;11.20;;;5.57;;
18338;SDS011;9295;44.484;11.240;2023-05-07T08:49:44;11.33;;;5.53;;
18338;SDS011;9295;44.484;11.240;2023-05-07T08:52:13;8.73;;;5.57;;
18338;SDS011;9295;44.484;11.240;2023-05-07T08:54:42;8.47;;;6.33;;
18338;SDS011;9295;44.484;11.240;2023-05-07T08:57:11;8.37;;;5.10;;
18338;SDS011;9295;44.484;11.240;2023-05-07T08:59:41;9.43;;;4.80;;
18338;SDS011;9295;44.484;11.240;2023-05-07T09:02:10;10.00;;;5.50;;
18338;SDS011;9295;44.484;11.240;2023-05-07T09:04:39;8.73;;;5.60;;
18338;SDS011;9295;44.484;11.240;2023-05-07T09:07:10;9.03;;;6.50;;
18338;SDS011;9295;44.484;11.240;2023-05-07T09:09:43;9.73;;;5.33;;
18338;SDS011;9295;44.484;11.240;2023-05-07T09:12:13;12.70;;;5.83;;
18338;SDS011;9295;44.484;11.240;2023-05-07T09:14:43;10.73;;;5.73;;
18338;SDS011;9295;44.484;11.240;2023-05-07T09:17:12;12.90;;;5.67;;
18338;SDS011;9295;44.484;11.240;2023-05-07T09:19:41;8.07;;;6.23;;
18338;SDS011;9295;44.484;11.240;2023-05-07T09:22:11;6.53;;;5.17;;
18338;SDS011;9295;44.484;11.240;2023-05-07T09:24:52;13.27;;;6.30;;
18338;SDS011;9295;44.484;11.240;2023-05-07T09:27:24;9.70;;;6.40;;
18338;SDS011;9295;44.484;11.240;2023-05-07T09:29:56;9.90;;;6.70;;
18338;SDS011;9295;44.484;11.240;2023-05-07T09:32:24;8.83;;;4.97;;
18338;SDS011;9295;44.484;11.240;2023-05-07T09:34:59;10.50;;;6.57;;
18338;SDS011;9295;44.484;11.240;2023-05-07T09:37:30;11.30;;;7.30;;
18338;SDS011;9295;44.484;11.240;2023-05-07T09:39:59;11.23;;;6.73;;
18338;SDS011;9295;44.484;11.240;2023-05-07T09:42:29;8.80;;;5.83;;
18338;SDS011;9295;44.484;11.240;2023-05-07T09:45:03;9.70;;;6.10;;
18338;SDS011;9295;44.484;11.240;2023-05-07T09:47:36;10.13;;;5.93;;
18338;SDS011;9295;44.484;11.240;2023-05-07T09:50:09;8.43;;;6.37;;
18338;SDS011;9295;44.484;11.240;2023-05-07T09:52:39;10.40;;;6.00;;
18338;SDS011;9295;44.484;11.240;2023-05-07T09:55:10;7.60;;;5.50;;
18338;SDS011;9295;44.484;11.240;2023-05-07T09:57:40;12.10;;;6.27;;
18338;SDS011;9295;44.484;11.240;2023-05-07T10:00:12;9.43;;;5.97;;
18338;SDS011;9295;44.484;11.240;2023-05-07T10:02:48;9.90;;;7.10;;
18338;SDS011;9295;44.484;11.240;2023-05-07T10:05:25;10.40;;;7.07;;
18338;SDS011;9295;44.484;11.240;2023-05-07T10:07:56;10.27;;;6.60;;
18338;SDS011;9295;44.484;11.240;2023-05-07T10:10:27;10.10;;;7.73;;
18338;SDS011;9295;44.484;11.240;2023-05-07T10:12:58;10.47;;;7.10;;
18338;SDS011;9295;44.484;11.240;2023-05-07T10:15:33;10.50;;;7.73;;
18338;SDS011;9295;44.484;11.240;2023-05-07T10:18:03;9.10;;;6.47;;
18338;SDS011;9295;44.484;11.240;2023-05-07T10:20:33;9.70;;;6.70;;
18338;SDS011;9295;44.484;11.240;2023-05-07T10:23:04;14.23;;;6.97;;
18338;SDS011;9295;44.484;11.240;2023-05-07T10:25:40;9.60;;;7.17;;
18338;SDS011;9295;44.484;11.240;2023-05-07T10:28:16;8.27;;;6.40;;
18338;SDS011;9295;44.484;11.240;2023-05-07T10:30:52;8.90;;;6.40;;
18338;SDS011;9295;44.484;11.240;2023-05-07T10:33:36;8.53;;;6.60;;
18338;SDS011;9295;44.484;11.240;2023-05-07T10:36:07;9.60;;;6.83;;
18338;SDS011;9295;44.484;11.240;2023-05-07T10:38:36;10.73;;;6.33;;
18338;SDS011;9295;44.484;11.240;2023-05-07T10:41:05;9.90;;;6.40;;
18338;SDS011;9295;44.484;11.240;2023-05-07T10:43:40;10.57;;;6.43;;
18338;SDS011;9295;44.484;11.240;2023-05-07T10:46:17;7.87;;;5.90;;
18338;SDS011;9295;44.484;11.240;2023-05-07T10:49:10;17.13;;;5.83;;
18338;SDS011;9295;44.484;11.240;2023-05-07T10:52:11;7.17;;;5.37;;
18338;SDS011;9295;44.484;11.240;2023-05-07T10:58:09;10.07;;;6.13;;
18338;SDS011;9295;44.484;11.240;2023-05-07T11:01:05;6.33;;;4.60;;
18338;SDS011;9295;44.484;11.240;2023-05-07T11:04:11;10.00;;;4.47;;
18338;SDS011;9295;44.484;11.240;2023-05-07T11:10:05;8.40;;;5.90;;
18338;SDS011;9295;44.484;11.240;2023-05-07T11:12:50;10.30;;;6.30;;
18338;SDS011;9295;44.484;11.240;2023-05-07T11:15:33;9.53;;;5.73;;
18338;SDS011;9295;44.484;11.240;2023-05-07T11:18:11;8.47;;;6.50;;
18338;SDS011;9295;44.484;11.240;2023-05-07T11:20:45;7.63;;;5.70;;
18338;SDS011;9295;44.484;11.240;2023-05-07T11:26:44;8.40;;;6.20;;
18338;SDS011;9295;44.484;11.240;2023-05-07T11:29:14;8.40;;;6.27;;
18338;SDS011;9295;44.484;11.240;2023-05-07T11:31:49;9.53;;;6.07;;
18338;SDS011;9295;44.484;11.240;2023-05-07T11:34:21;9.63;;;5.60;;
18338;SDS011;9295;44.484;11.240;2023-05-07T11:36:53;10.97;;;5.97;;
18338;SDS011;9295;44.484;11.240;2023-05-07T11:39:32;8.40;;;5.13;;
18338;SDS011;9295;44.484;11.240;2023-05-07T11:42:02;8.50;;;5.33;;
18338;SDS011;9295;44.484;11.240;2023-05-07T11:44:41;6.60;;;4.57;;
18338;SDS011;9295;44.484;11.240;2023-05-07T11:47:10;10.10;;;6.70;;
18338;SDS011;9295;44.484;11.240;2023-05-07T11:49:39;11.07;;;7.23;;
18338;SDS011;9295;44.484;11.240;2023-05-07T11:52:09;8.40;;;5.27;;
18338;SDS011;9295;44.484;11.240;2023-05-07T11:54:37;5.83;;;4.50;;
18338;SDS011;9295;44.484;11.240;2023-05-07T11:57:07;11.60;;;4.23;;
18338;SDS011;9295;44.484;11.240;2023-05-07T11:59:42;8.10;;;3.27;;
18338;SDS011;9295;44.484;11.240;2023-05-07T12:02:13;11.90;;;3.30;;
18338;SDS011;9295;44.484;11.240;2023-05-07T12:04:43;5.37;;;3.20;;
18338;SDS011;9295;44.484;11.240;2023-05-07T12:07:13;4.67;;;3.30;;
18338;SDS011;9295;44.484;11.240;2023-05-07T12:09:43;5.60;;;3.63;;
18338;SDS011;9295;44.484;11.240;2023-05-07T12:12:13;5.63;;;2.80;;
18338;SDS011;9295;44.484;11.240;2023-05-07T12:14:44;5.43;;;3.10;;
18338;SDS011;9295;44.484;11.240;2023-05-07T12:17:13;4.37;;;3.00;;
18338;SDS011;9295;44.484;11.240;2023-05-07T12:19:43;9.77;;;3.63;;
18338;SDS011;9295;44.484;11.240;2023-05-07T12:22:14;8.63;;;4.50;;
18338;SDS011;9295;44.484;11.240;2023-05-07T12:24:43;8.57;;;4.20;;
18338;SDS011;9295;44.484;11.240;2023-05-07T12:27:13;11.20;;;4.37;;
18338;SDS011;9295;44.484;11.240;2023-05-07T12:29:43;8.30;;;4.37;;
18338;SDS011;9295;44.484;11.240;2023-05-07T12:32:13;7.20;;;4.00;;
18338;SDS011;9295;44.484;11.240;2023-05-07T12:34:42;8.00;;;4.93;;
18338;SDS011;9295;44.484;11.240;2023-05-07T12:37:13;6.77;;;4.47;;
18338;SDS011;9295;44.484;11.240;2023-05-07T12:39:46;17.93;;;5.00;;
18338;SDS011;9295;44.484;11.240;2023-05-07T12:42:15;7.40;;;5.00;;
18338;SDS011;9295;44.484;11.240;2023-05-07T12:44:50;7.00;;;4.07;;
18338;SDS011;9295;44.484;11.240;2023-05-07T12:47:18;11.93;;;4.73;;
18338;SDS011;9295;44.484;11.240;2023-05-07T12:49:48;6.83;;;3.97;;
18338;SDS011;9295;44.484;11.240;2023-05-07T12:52:18;10.73;;;4.50;;
18338;SDS011;9295;44.484;11.240;2023-05-07T12:54:48;6.70;;;5.23;;
18338;SDS011;9295;44.484;11.240;2023-05-07T12:57:18;9.73;;;5.40;;
18338;SDS011;9295;44.484;11.240;2023-05-07T12:59:48;7.30;;;5.40;;
18338;SDS011;9295;44.484;11.240;2023-05-07T13:02:16;7.70;;;5.33;;
18338;SDS011;9295;44.484;11.240;2023-05-07T13:04:45;8.83;;;5.37;;
18338;SDS011;9295;44.484;11.240;2023-05-07T13:07:14;7.20;;;4.80;;
18338;SDS011;9295;44.484;11.240;2023-05-07T13:09:44;6.90;;;5.03;;
18338;SDS011;9295;44.484;11.240;2023-05-07T13:12:15;6.57;;;5.17;;
18338;SDS011;9295;44.484;11.240;2023-05-07T13:14:43;11.93;;;5.37;;
18338;SDS011;9295;44.484;11.240;2023-05-07T13:17:11;6.80;;;5.30;;
18338;SDS011;9295;44.484;11.240;2023-05-07T13:19:45;6.93;;;5.40;;
18338;SDS011;9295;44.484;11.240;2023-05-07T13:22:14;8.63;;;5.90;;
18338;SDS011;9295;44.484;11.240;2023-05-07T13:24:42;7.77;;;5.20;;
18338;SDS011;9295;44.484;11.240;2023-05-07T13:27:12;9.97;;;5.50;;
18338;SDS011;9295;44.484;11.240;2023-05-07T13:29:41;7.60;;;5.43;;
18338;SDS011;9295;44.484;11.240;2023-05-07T13:32:13;7.50;;;5.07;;
18338;SDS011;9295;44.484;11.240;2023-05-07T13:34:42;6.77;;;5.27;;
18338;SDS011;9295;44.484;11.240;2023-05-07T13:37:10;5.60;;;4.87;;
18338;SDS011;9295;44.484;11.240;2023-05-07T13:39:38;9.90;;;5.80;;
18338;SDS011;9295;44.484;11.240;2023-05-07T13:42:07;6.87;;;5.17;;
18338;SDS011;9295;44.484;11.240;2023-05-07T13:44:37;5.70;;;4.93;;
18338;SDS011;9295;44.484;11.240;2023-05-07T13:47:05;6.80;;;4.80;;
18338;SDS011;9295;44.484;11.240;2023-05-07T13:49:33;7.53;;;5.13;;
18338;SDS011;9295;44.484;11.240;2023-05-07T13:52:02;6.07;;;4.80;;
18338;SDS011;9295;44.484;11.240;2023-05-07T13:54:31;6.93;;;4.90;;
18338;SDS011;9295;44.484;11.240;2023-05-07T13:56:59;6.10;;;4.57;;
18338;SDS011;9295;44.484;11.240;2023-05-07T13:59:28;5.30;;;4.43;;
18338;SDS011;9295;44.484;11.240;2023-05-07T14:01:57;6.67;;;4.43;;
18338;SDS011;9295;44.484;11.240;2023-05-07T14:04:26;6.90;;;4.20;;
18338;SDS011;9295;44.484;11.240;2023-05-07T14:06:54;8.10;;;5.10;;
18338;SDS011;9295;44.484;11.240;2023-05-07T14:09:23;9.90;;;6.10;;
18338;SDS011;9295;44.484;11.240;2023-05-07T14:11:51;8.30;;;6.00;;
18338;SDS011;9295;44.484;11.240;2023-05-07T14:14:20;11.93;;;5.43;;
18338;SDS011;9295;44.484;11.240;2023-05-07T14:16:48;9.40;;;4.23;;
18338;SDS011;9295;44.484;11.240;2023-05-07T14:19:18;6.50;;;5.30;;
18338;SDS011;9295;44.484;11.240;2023-05-07T14:21:49;7.00;;;5.30;;
18338;SDS011;9295;44.484;11.240;2023-05-07T14:24:17;9.20;;;6.37;;
18338;SDS011;9295;44.484;11.240;2023-05-07T14:27:03;7.40;;;5.70;;
18338;SDS011;9295;44.484;11.240;2023-05-07T14:29:32;7.20;;;5.60;;
18338;SDS011;9295;44.484;11.240;2023-05-07T14:32:02;8.10;;;5.70;;
18338;SDS011;9295;44.484;11.240;2023-05-07T14:34:32;8.97;;;5.90;;
18338;SDS011;9295;44.484;11.240;2023-05-07T14:37:00;7.50;;;5.20;;
18338;SDS011;9295;44.484;11.240;2023-05-07T14:39:29;11.53;;;5.43;;
18338;SDS011;9295;44.484;11.240;2023-05-07T14:41:57;10.63;;;5.87;;
18338;SDS011;9295;44.484;11.240;2023-05-07T14:44:26;6.50;;;5.40;;
18338;SDS011;9295;44.484;11.240;2023-05-07T14:46:57;10.10;;;5.83;;
18338;SDS011;9295;44.484;11.240;2023-05-07T14:49:28;9.80;;;5.60;;
18338;SDS011;9295;44.484;11.240;2023-05-07T14:51:58;8.07;;;5.57;;
18338;SDS011;9295;44.484;11.240;2023-05-07T14:54:27;7.03;;;5.33;;
18338;SDS011;9295;44.484;11.240;2023-05-07T14:56:56;6.37;;;5.07;;
18338;SDS011;9295;44.484;11.240;2023-05-07T14:59:24;8.83;;;5.97;;
18338;SDS011;9295;44.484;11.240;2023-05-07T15:01:52;9.30;;;5.53;;
18338;SDS011;9295;44.484;11.240;2023-05-07T15:04:22;10.70;;;5.50;;
18338;SDS011;9295;44.484;11.240;2023-05-07T15:06:51;9.03;;;5.63;;
18338;SDS011;9295;44.484;11.240;2023-05-07T15:09:21;6.20;;;4.40;;
18338;SDS011;9295;44.484;11.240;2023-05-07T15:11:50;9.33;;;5.57;;
18338;SDS011;9295;44.484;11.240;2023-05-07T15:14:18;6.70;;;5.57;;
18338;SDS011;9295;44.484;11.240;2023-05-07T15:16:48;8.07;;;4.80;;